Pangborn Memorial Airport
KEAT : now visible

Airfield :











YOU CAN JOIN US ON...

 
LOGIN :

Register | Disclaimer

   EN    FR    IT 

 









Legend :    VFR   Marginal VFR   IFR   Intensive IFR   Very Intensive IFR
Visi :
Ceiling :
>= 8 km
>= 3000ft
5 to 8 km
1000 to 3000 ft
1500m to 5 km
500 to 1000 ft
800 to 1500m
200 to 500 ft
< 800m
< 200 ft
Symbols :   Thunderstorms  Fog  Heavy snow  Heavy precipitations  Wind > 20 kt






- Airport Elevation : 1249 ft


KEAT - Pangborn Memorial

CURRENT METAR :
  • 071855Z AUTO 31014KT 10SM CLR 14/M04 A3003 RMK AO2 SLP171 T01441039

EXPIRED METARs :
  • 071755Z AUTO 29012KT 10SM CLR 12/M03 A3004 RMK AO2 SLP175 T01171033 10117 20083 51014
  • 071655Z AUTO 30010KT 10SM CLR 11/M03 A3003 RMK AO2 SLP172 T01111028

TAF KEAT
Valid from the 07 at 18:00 until the 08 at 18:00 UTC


071723Z 0718/0818 30011KT P6SM BKN250
FM072200 30020G27KT P6SM BKN250
FM080500 30010KT P6SM FEW250



MET'MAP, your aeronautical weather chart ! - Copyright ORBIFLY December 2007 - Disclaimer

ORBIFLY MET'MAP TEAM :

Programming & Development : Alexandra Zaïnal
Concept & original design : Baudouin d'Aumeries
Assistance for programming : Marc-Olivier Méhu
Technical & hardware support : Manuel Goepfert

Contact : metmap@orbifly.com




SOURCES & CREDITS :

   NOAA       Earth
Advisory